createdAt,value
2018-04-06T00:00:58.619Z,0.00
2018-04-06T00:01:58.585Z,0.00
2018-04-06T00:02:58.554Z,0.00
2018-04-06T00:03:58.525Z,0.00
2018-04-06T00:04:58.495Z,0.00
2018-04-06T00:05:58.464Z,0.00
2018-04-06T00:06:58.434Z,0.00
2018-04-06T00:07:58.402Z,0.00
2018-04-06T00:08:58.372Z,0.00
2018-04-06T00:09:58.340Z,0.00
2018-04-06T00:10:58.313Z,0.00
2018-04-06T00:11:58.279Z,0.00
2018-04-06T00:12:58.253Z,0.00
2018-04-06T00:13:58.258Z,0.00
2018-04-06T00:14:58.190Z,0.00
2018-04-06T00:15:58.160Z,0.00
2018-04-06T00:16:58.127Z,0.00
2018-04-06T00:17:58.095Z,0.00
2018-04-06T00:18:58.069Z,0.00
2018-04-06T00:19:58.039Z,0.00
2018-04-06T00:20:58.005Z,0.00
2018-04-06T00:21:57.976Z,0.00
2018-04-06T00:22:57.947Z,0.00
2018-04-06T00:23:57.911Z,0.00
2018-04-06T00:24:57.882Z,0.00
2018-04-06T00:25:57.855Z,0.00
2018-04-06T00:26:57.819Z,0.00
2018-04-06T00:27:57.789Z,0.00
2018-04-06T00:28:57.758Z,0.00
2018-04-06T00:29:57.727Z,0.00
2018-04-06T00:30:57.698Z,0.00
2018-04-06T00:31:57.671Z,0.00
2018-04-06T00:32:57.636Z,0.00
2018-04-06T00:33:57.604Z,0.00
2018-04-06T00:34:57.574Z,0.00
2018-04-06T00:35:57.543Z,0.00
2018-04-06T00:36:57.512Z,0.00
2018-04-06T00:37:57.482Z,0.00
2018-04-06T00:38:57.450Z,0.00
2018-04-06T00:39:57.421Z,0.00
2018-04-06T00:40:57.390Z,0.00
2018-04-06T00:41:57.393Z,0.00
2018-04-06T00:42:57.328Z,0.00
2018-04-06T00:43:57.298Z,0.00
2018-04-06T00:44:57.266Z,0.00
2018-04-06T00:45:57.235Z,0.00
2018-04-06T00:46:57.205Z,0.00
2018-04-06T00:47:57.174Z,0.00
2018-04-06T00:48:57.144Z,0.00
2018-04-06T00:49:57.112Z,0.00
2018-04-06T00:50:57.085Z,0.00
2018-04-06T00:51:57.051Z,0.00
2018-04-06T00:52:57.022Z,0.00
2018-04-06T00:53:56.989Z,0.00
2018-04-06T00:54:56.959Z,0.00
2018-04-06T00:55:56.928Z,0.00
2018-04-06T00:56:56.897Z,0.00
2018-04-06T00:57:56.866Z,0.00
2018-04-06T00:58:56.885Z,0.00
2018-04-06T00:59:56.804Z,0.00
2018-04-06T01:00:56.774Z,0.00
2018-04-06T01:01:56.742Z,0.00
2018-04-06T01:02:56.727Z,0.00
2018-04-06T01:03:56.684Z,0.00
2018-04-06T01:04:56.653Z,0.00
2018-04-06T01:05:56.619Z,0.00
2018-04-06T01:06:56.616Z,0.00
2018-04-06T01:07:56.562Z,0.00
2018-04-06T01:08:56.529Z,0.00
2018-04-06T01:09:56.542Z,0.00
2018-04-06T01:10:56.464Z,0.00
2018-04-06T01:11:56.433Z,0.00
2018-04-06T01:12:56.402Z,0.00
2018-04-06T01:13:56.373Z,0.00
2018-04-06T01:14:56.340Z,0.00
2018-04-06T01:15:56.311Z,0.00
2018-04-06T01:16:56.281Z,0.00
2018-04-06T01:17:56.249Z,0.00
2018-04-06T01:18:56.217Z,0.00
2018-04-06T01:19:56.186Z,0.00
2018-04-06T01:20:56.155Z,0.00
2018-04-06T01:21:56.124Z,0.00
2018-04-06T01:22:56.097Z,0.00
2018-04-06T01:23:56.067Z,0.00
2018-04-06T01:24:56.035Z,0.00
2018-04-06T01:25:56.004Z,0.00
2018-04-06T01:26:55.970Z,0.00
2018-04-06T01:27:55.939Z,0.00
2018-04-06T01:28:55.907Z,0.00
2018-04-06T01:29:55.876Z,0.00
2018-04-06T01:30:55.848Z,0.00
2018-04-06T01:31:55.816Z,0.00
2018-04-06T01:32:55.789Z,0.00
2018-04-06T01:33:55.757Z,0.00
2018-04-06T01:34:55.722Z,0.00
2018-04-06T01:35:55.691Z,0.00
2018-04-06T01:36:55.660Z,0.00
2018-04-06T01:37:55.632Z,0.00
2018-04-06T01:38:55.596Z,0.00
2018-04-06T01:39:55.569Z,0.00
2018-04-06T01:40:55.535Z,0.00
2018-04-06T01:41:55.509Z,0.00
2018-04-06T01:42:55.473Z,0.00
2018-04-06T01:43:55.442Z,0.00
2018-04-06T01:44:55.411Z,0.00
2018-04-06T01:45:55.381Z,0.00
2018-04-06T01:46:55.349Z,0.00
2018-04-06T01:47:55.318Z,0.00
2018-04-06T01:48:55.290Z,0.00
2018-04-06T01:49:55.262Z,0.00
2018-04-06T01:50:55.225Z,0.00
2018-04-06T01:51:55.202Z,0.00
2018-04-06T01:52:55.184Z,0.00
2018-04-06T01:53:55.135Z,0.00
2018-04-06T01:54:55.101Z,0.00
2018-04-06T01:55:55.073Z,0.00
2018-04-06T01:56:55.038Z,0.00
2018-04-06T01:57:55.010Z,0.00
2018-04-06T01:58:54.979Z,0.00
2018-04-06T01:59:55.002Z,0.00
2018-04-06T02:00:54.917Z,0.00
2018-04-06T02:01:54.883Z,0.00
2018-04-06T02:02:54.852Z,0.00
2018-04-06T02:03:54.821Z,0.00
2018-04-06T02:04:54.791Z,0.00
2018-04-06T02:05:54.758Z,0.00
2018-04-06T02:06:54.742Z,0.00
2018-04-06T02:07:54.701Z,0.00
2018-04-06T02:08:54.670Z,0.00
2018-04-06T02:09:54.634Z,0.00
2018-04-06T02:10:54.607Z,0.00
2018-04-06T02:11:54.577Z,0.00
2018-04-06T02:12:54.541Z,0.00
2018-04-06T02:13:54.514Z,0.00
2018-04-06T02:14:54.480Z,0.00
2018-04-06T02:15:54.449Z,0.00
2018-04-06T02:16:54.418Z,0.00
2018-04-06T02:17:54.388Z,0.00
2018-04-06T02:18:54.354Z,0.00
2018-04-06T02:19:54.327Z,0.00
2018-04-06T02:20:54.293Z,0.00
2018-04-06T02:21:54.261Z,0.00
2018-04-06T02:22:54.233Z,0.00
2018-04-06T02:23:54.200Z,0.00
2018-04-06T02:24:54.184Z,0.00
2018-04-06T02:25:54.141Z,0.00
2018-04-06T02:26:54.106Z,0.00
2018-04-06T02:27:54.080Z,0.00
2018-04-06T02:28:54.044Z,0.00
2018-04-06T02:29:54.012Z,0.00
2018-04-06T02:30:53.980Z,0.00
2018-04-06T02:31:53.949Z,0.00
2018-04-06T02:32:53.921Z,0.00
2018-04-06T02:33:53.888Z,0.00
2018-04-06T02:34:53.857Z,0.00
2018-04-06T02:35:53.826Z,0.00
2018-04-06T02:36:53.796Z,0.00
2018-04-06T02:37:53.764Z,0.00
2018-04-06T02:38:53.734Z,0.00
2018-04-06T02:39:53.702Z,0.00
2018-04-06T02:40:53.670Z,0.00
2018-04-06T02:41:53.647Z,0.00
2018-04-06T02:42:53.611Z,0.00
2018-04-06T02:43:53.579Z,0.00
2018-04-06T02:44:53.546Z,0.00
2018-04-06T02:45:53.513Z,0.00
2018-04-06T02:46:53.492Z,0.00
2018-04-06T02:47:53.458Z,0.00
2018-04-06T02:48:53.422Z,0.00
2018-04-06T02:49:53.390Z,0.00
2018-04-06T02:50:53.357Z,0.00
2018-04-06T02:51:53.327Z,0.00
2018-04-06T02:52:53.296Z,0.00
2018-04-06T02:53:53.263Z,0.00
2018-04-06T02:54:53.247Z,0.00
2018-04-06T02:55:53.220Z,0.00
2018-04-06T02:56:53.171Z,0.00
2018-04-06T02:57:53.148Z,0.00
2018-04-06T02:58:53.108Z,0.00
2018-04-06T02:59:53.077Z,0.00
2018-04-06T03:00:53.048Z,0.00
2018-04-06T03:01:53.014Z,0.00
2018-04-06T03:02:52.983Z,0.00
2018-04-06T03:03:52.953Z,0.00
2018-04-06T03:04:52.921Z,0.00
2018-04-06T03:05:52.889Z,0.00
2018-04-06T03:06:52.860Z,0.00
2018-04-06T03:07:52.827Z,0.00
2018-04-06T03:08:52.796Z,0.00
2018-04-06T03:09:52.764Z,0.00
2018-04-06T03:10:52.733Z,0.00
2018-04-06T03:11:52.702Z,0.00
2018-04-06T03:12:52.671Z,0.00
2018-04-06T03:13:52.639Z,0.00
2018-04-06T03:14:52.646Z,0.00
2018-04-06T03:15:52.584Z,0.00
2018-04-06T03:16:52.547Z,0.00
2018-04-06T03:17:52.514Z,0.00
2018-04-06T03:18:52.483Z,0.00
2018-04-06T03:19:52.452Z,0.00
2018-04-06T03:20:52.420Z,0.00
2018-04-06T03:21:52.389Z,0.00
2018-04-06T03:22:52.360Z,0.00
2018-04-06T03:23:52.326Z,0.00
2018-04-06T03:24:52.296Z,0.00
2018-04-06T03:25:52.263Z,0.00
2018-04-06T03:26:52.234Z,0.00
2018-04-06T03:27:52.203Z,0.00
2018-04-06T03:28:52.172Z,0.00
2018-04-06T03:29:52.139Z,0.00
2018-04-06T03:30:52.108Z,0.00
2018-04-06T03:31:52.083Z,0.00
2018-04-06T03:32:52.045Z,0.00
2018-04-06T03:33:52.013Z,0.00
2018-04-06T03:34:51.982Z,0.00
2018-04-06T03:35:51.951Z,0.00
2018-04-06T03:36:51.919Z,0.00
2018-04-06T03:37:51.888Z,0.00
2018-04-06T03:38:51.856Z,0.00
2018-04-06T03:39:51.832Z,0.00
2018-04-06T03:40:51.795Z,0.00
2018-04-06T03:41:51.764Z,0.00
2018-04-06T03:42:51.731Z,0.00
2018-04-06T03:43:51.700Z,0.00
2018-04-06T03:44:51.668Z,0.00
2018-04-06T03:45:51.636Z,0.00
2018-04-06T03:46:51.605Z,0.00
2018-04-06T03:47:51.575Z,0.00
2018-04-06T03:48:51.544Z,0.00
2018-04-06T03:49:51.510Z,0.00
2018-04-06T03:50:51.480Z,0.00
2018-04-06T03:51:51.448Z,0.00
2018-04-06T03:52:51.417Z,0.00
2018-04-06T03:53:51.385Z,0.00
2018-04-06T03:54:51.354Z,0.00
2018-04-06T03:55:51.322Z,0.00
2018-04-06T03:56:51.291Z,0.00
2018-04-06T03:57:51.258Z,0.00
2018-04-06T03:58:51.228Z,0.00
2018-04-06T03:59:51.196Z,0.00
2018-04-06T04:00:51.167Z,0.00
2018-04-06T04:01:51.163Z,4.00
2018-04-06T04:02:51.104Z,4.00
2018-04-06T04:03:51.071Z,0.00
2018-04-06T04:04:51.042Z,4.00
2018-04-06T04:05:51.013Z,4.00
2018-04-06T04:06:50.980Z,4.00
2018-04-06T04:07:50.945Z,4.00
2018-04-06T04:08:50.914Z,4.00
2018-04-06T04:09:50.882Z,4.00
2018-04-06T04:10:50.850Z,4.00
2018-04-06T04:11:50.826Z,8.00
2018-04-06T04:12:50.788Z,8.00
2018-04-06T04:13:50.762Z,12.00
2018-04-06T04:14:50.725Z,12.00
2018-04-06T04:15:50.695Z,16.00
2018-04-06T04:16:50.663Z,20.00
2018-04-06T04:17:50.631Z,20.00
2018-04-06T04:18:50.600Z,24.00
2018-04-06T04:19:50.570Z,28.00
2018-04-06T04:20:50.539Z,36.00
2018-04-06T04:21:50.505Z,44.00
2018-04-06T04:22:50.475Z,52.00
2018-04-06T04:23:50.442Z,56.00
2018-04-06T04:24:50.412Z,68.00
2018-04-06T04:25:50.379Z,76.00
2018-04-06T04:26:50.348Z,92.00
2018-04-06T04:27:50.318Z,104.00
2018-04-06T04:28:50.286Z,120.00
2018-04-06T04:29:50.254Z,136.00
2018-04-06T04:30:50.222Z,160.00
2018-04-06T04:31:50.191Z,180.00
2018-04-06T04:32:50.160Z,204.00
2018-04-06T04:33:50.130Z,228.00
2018-04-06T04:34:50.097Z,260.00
2018-04-06T04:35:50.066Z,288.00
2018-04-06T04:36:50.035Z,320.00
2018-04-06T04:37:50.003Z,360.00
2018-04-06T04:38:49.972Z,400.00
2018-04-06T04:39:49.941Z,440.00
2018-04-06T04:40:49.909Z,484.00
2018-04-06T04:41:49.881Z,532.00
2018-04-06T04:42:49.846Z,580.00
2018-04-06T04:43:49.816Z,632.00
2018-04-06T04:44:49.784Z,688.00
2018-04-06T04:45:49.753Z,748.00
2018-04-06T04:46:49.721Z,808.00
2018-04-06T04:47:49.695Z,872.00
2018-04-06T04:48:49.661Z,940.00
2018-04-06T04:49:49.630Z,1008.00
2018-04-06T04:50:49.596Z,1080.00
2018-04-06T04:51:49.565Z,1152.00
2018-04-06T04:52:49.535Z,1228.00
2018-04-06T04:53:49.505Z,1308.00
2018-04-06T04:54:49.471Z,1388.00
2018-04-06T04:55:49.439Z,1468.00
2018-04-06T04:56:49.409Z,1556.00
2018-04-06T04:57:49.377Z,1640.00
2018-04-06T04:58:49.345Z,1728.00
2018-04-06T04:59:49.318Z,1824.00
2018-04-06T05:00:49.284Z,1912.00
2018-04-06T05:01:49.251Z,2004.00
2018-04-06T05:02:49.222Z,2096.00
2018-04-06T05:03:49.189Z,2188.00
2018-04-06T05:04:49.159Z,2280.00
2018-04-06T05:05:49.127Z,2376.00
2018-04-06T05:06:49.098Z,2464.00
2018-04-06T05:07:49.067Z,2572.00
2018-04-06T05:08:49.048Z,2672.00
2018-04-06T05:09:49.001Z,2776.00
2018-04-06T05:10:48.972Z,2940.00
2018-04-06T05:11:48.943Z,3112.00
2018-04-06T05:12:48.909Z,3200.00
2018-04-06T05:13:48.881Z,3212.00
2018-04-06T05:14:48.854Z,3308.00
2018-04-06T05:15:48.816Z,3500.00
2018-04-06T05:16:48.793Z,3740.00
2018-04-06T05:17:48.754Z,3992.00
2018-04-06T05:18:48.723Z,3864.00
2018-04-06T05:19:48.693Z,3816.00
2018-04-06T05:20:48.661Z,4032.00
2018-04-06T05:21:48.636Z,4520.00
2018-04-06T05:22:48.599Z,4820.00
2018-04-06T05:23:48.572Z,4924.00
2018-04-06T05:24:48.539Z,5180.00
2018-04-06T05:25:48.506Z,5492.00
2018-04-06T05:26:48.476Z,5732.00
2018-04-06T05:27:48.446Z,5940.00
2018-04-06T05:28:48.419Z,6100.00
2018-04-06T05:29:48.390Z,6328.00
2018-04-06T05:30:48.354Z,6512.00
2018-04-06T05:31:48.328Z,6724.00
2018-04-06T05:32:48.294Z,6844.00
2018-04-06T05:33:48.266Z,7080.00
2018-04-06T05:34:48.234Z,7324.00
2018-04-06T05:35:48.203Z,7492.00
2018-04-06T05:36:48.174Z,7672.00
2018-04-06T05:37:48.143Z,7900.00
2018-04-06T05:38:48.176Z,8044.00
2018-04-06T05:39:48.084Z,8288.00
2018-04-06T05:40:48.054Z,8512.00
2018-04-06T05:41:48.028Z,8752.00
2018-04-06T05:42:47.995Z,9072.00
2018-04-06T05:43:47.970Z,9232.00
2018-04-06T05:44:47.937Z,9408.00
2018-04-06T05:45:47.906Z,9660.00
2018-04-06T05:46:47.887Z,9840.00
2018-04-06T05:47:47.849Z,10016.00
2018-04-06T05:48:47.820Z,10240.00
2018-04-06T05:49:47.789Z,10708.00
2018-04-06T05:50:47.763Z,10748.00
2018-04-06T05:51:47.734Z,10800.00
2018-04-06T05:52:47.704Z,11152.00
2018-04-06T05:53:47.675Z,11332.00
2018-04-06T05:54:47.650Z,11620.00
2018-04-06T05:55:47.618Z,11836.00
2018-04-06T05:56:47.590Z,12248.00
2018-04-06T05:57:47.560Z,12552.00
2018-04-06T05:58:47.532Z,12788.00
2018-04-06T05:59:47.504Z,13184.00
2018-04-06T06:00:47.476Z,13440.00
2018-04-06T06:01:47.447Z,13760.00
2018-04-06T06:02:47.419Z,13984.00
2018-04-06T06:03:47.394Z,14272.00
2018-04-06T06:04:47.363Z,14784.00
2018-04-06T06:05:47.339Z,15040.00
2018-04-06T06:06:47.306Z,15296.00
2018-04-06T06:07:47.279Z,15584.00
2018-04-06T06:08:47.252Z,16032.00
2018-04-06T06:09:47.228Z,16096.00
2018-04-06T06:10:47.195Z,16352.00
2018-04-06T06:11:47.170Z,16768.00
2018-04-06T06:12:47.140Z,16768.00
2018-04-06T06:13:47.112Z,17120.00
2018-04-06T06:14:47.085Z,17600.00
2018-04-06T06:15:47.058Z,17792.00
2018-04-06T06:16:47.031Z,17920.00
2018-04-06T06:17:47.056Z,18048.00
2018-04-06T06:18:46.976Z,18528.00
2018-04-06T06:19:46.949Z,19072.00
2018-04-06T06:20:46.926Z,19776.00
2018-04-06T06:21:46.894Z,20672.00
2018-04-06T06:22:46.869Z,20896.00
2018-04-06T06:23:46.842Z,21344.00
2018-04-06T06:24:47.167Z,22624.00
2018-04-06T06:25:46.785Z,23616.00
2018-04-06T06:26:46.759Z,23424.00
2018-04-06T06:27:46.732Z,23168.00
2018-04-06T06:28:46.706Z,23392.00
2018-04-06T06:29:46.681Z,24384.00
2018-04-06T06:30:46.651Z,25824.00
2018-04-06T06:31:46.625Z,26144.00
2018-04-06T06:32:46.601Z,26112.00
2018-04-06T06:33:46.571Z,27648.00
2018-04-06T06:34:46.549Z,28096.00
2018-04-06T06:35:46.519Z,28320.00
2018-04-06T06:36:46.492Z,28448.00
2018-04-06T06:37:46.468Z,29344.00
2018-04-06T06:38:46.438Z,30304.00
2018-04-06T06:39:46.413Z,30048.00
2018-04-06T06:40:46.387Z,30304.00
2018-04-06T06:41:46.359Z,29856.00
2018-04-06T06:42:46.583Z,31328.00
2018-04-06T06:43:46.307Z,32448.00
2018-04-06T06:44:46.286Z,31904.00
2018-04-06T06:45:46.260Z,32832.00
2018-04-06T06:46:46.229Z,33376.00
2018-04-06T06:47:46.208Z,33344.00
2018-04-06T06:48:46.179Z,34592.00
2018-04-06T06:49:46.151Z,35424.00
2018-04-06T06:50:46.128Z,35488.00
2018-04-06T06:51:46.100Z,35168.00
2018-04-06T06:52:46.074Z,35936.00
2018-04-06T06:53:46.051Z,36512.00
2018-04-06T06:54:46.022Z,36256.00
2018-04-06T06:55:45.996Z,37472.00
2018-04-06T06:56:45.972Z,38112.00
2018-04-06T06:57:45.947Z,38016.00
2018-04-06T06:58:45.924Z,39328.00
2018-04-06T06:59:45.895Z,40512.00
2018-04-06T07:00:45.880Z,38880.00
2018-04-06T07:01:45.844Z,38560.00
2018-04-06T07:02:45.818Z,39712.00
2018-04-06T07:03:45.793Z,39200.00
2018-04-06T07:04:45.769Z,37728.00
2018-04-06T07:05:45.743Z,37632.00
2018-04-06T07:06:45.735Z,37824.00
2018-04-06T07:07:45.694Z,36800.00
2018-04-06T07:08:45.671Z,37120.00
2018-04-06T07:09:45.660Z,36512.00
2018-04-06T07:10:45.619Z,36032.00
2018-04-06T07:11:45.595Z,35072.00
2018-04-06T07:12:45.577Z,36672.00
2018-04-06T07:13:45.545Z,34784.00
2018-04-06T07:14:45.524Z,29376.00
2018-04-06T07:15:45.497Z,29568.00
2018-04-06T07:16:45.473Z,30144.00
2018-04-06T07:17:45.447Z,29472.00
2018-04-06T07:18:45.424Z,28608.00
2018-04-06T07:19:45.400Z,25440.00
2018-04-06T07:20:45.376Z,23072.00
2018-04-06T07:21:45.358Z,22400.00
2018-04-06T07:22:45.328Z,22784.00
2018-04-06T07:23:45.304Z,22048.00
2018-04-06T07:24:45.281Z,21152.00
2018-04-06T07:25:45.256Z,21984.00
2018-04-06T07:26:45.234Z,34528.00
2018-04-06T07:27:45.211Z,42720.00
2018-04-06T07:28:45.217Z,37632.00
2018-04-06T07:29:45.179Z,34496.00
2018-04-06T07:30:45.141Z,32512.00
2018-04-06T07:31:45.118Z,35072.00
2018-04-06T07:32:45.095Z,37056.00
2018-04-06T07:33:45.090Z,37536.00
2018-04-06T07:34:45.049Z,38400.00
2018-04-06T07:35:45.328Z,39488.00
2018-04-06T07:36:45.007Z,38688.00
2018-04-06T07:37:45.028Z,37888.00
2018-04-06T07:38:44.962Z,37856.00
2018-04-06T07:39:44.938Z,37056.00
2018-04-06T07:40:44.919Z,38112.00
2018-04-06T07:41:44.897Z,40160.00
2018-04-06T07:42:44.869Z,40128.00
2018-04-06T07:43:44.848Z,39104.00
2018-04-06T07:44:44.832Z,39776.00
2018-04-06T07:45:44.803Z,38560.00
2018-04-06T07:46:44.783Z,40512.00
2018-04-06T07:47:44.760Z,40800.00
2018-04-06T07:48:44.738Z,40736.00
2018-04-06T07:49:44.715Z,40096.00
2018-04-06T07:50:44.710Z,40064.00
2018-04-06T07:51:44.672Z,40512.00
2018-04-06T07:52:44.650Z,41952.00
2018-04-06T07:53:44.628Z,42784.00
2018-04-06T07:54:44.608Z,41856.00
2018-04-06T07:55:44.585Z,41920.00
2018-04-06T07:56:44.563Z,42400.00
2018-04-06T07:57:44.539Z,43744.00
2018-04-06T07:58:44.524Z,44032.00
2018-04-06T07:59:44.500Z,44736.00
2018-04-06T08:00:44.476Z,44416.00
2018-04-06T08:01:44.461Z,45088.00
2018-04-06T08:02:44.436Z,48256.00
2018-04-06T08:03:44.413Z,47328.00
2018-04-06T08:04:44.390Z,48768.00
2018-04-06T08:05:44.375Z,50240.00
2018-04-06T08:06:44.348Z,50048.00
2018-04-06T08:07:44.336Z,50112.00
2018-04-06T08:08:44.327Z,49888.00
2018-04-06T08:09:44.287Z,52192.00
2018-04-06T08:10:44.264Z,52480.00
2018-04-06T08:11:44.244Z,52928.00
2018-04-06T08:12:44.229Z,53600.00
2018-04-06T08:13:44.204Z,53184.00
2018-04-06T08:14:44.181Z,55072.00
2018-04-06T08:15:44.171Z,54784.00
2018-04-06T08:16:44.157Z,56544.00
2018-04-06T08:17:44.119Z,56224.00
2018-04-06T08:18:44.100Z,56224.00
2018-04-06T08:19:44.079Z,58688.00
2018-04-06T08:20:44.073Z,57024.00
2018-04-06T08:21:44.043Z,58208.00
2018-04-06T08:22:44.017Z,60128.00
2018-04-06T08:23:44.008Z,58592.00
2018-04-06T08:24:43.978Z,57568.00
2018-04-06T08:25:43.957Z,58912.00
2018-04-06T08:26:43.944Z,59616.00
2018-04-06T08:27:43.921Z,61568.00
2018-04-06T08:28:43.898Z,61280.00
2018-04-06T08:29:43.880Z,60320.00
2018-04-06T08:30:43.857Z,61024.00
2018-04-06T08:31:43.844Z,61024.00
2018-04-06T08:32:43.836Z,59872.00
2018-04-06T08:33:43.798Z,61440.00
2018-04-06T08:34:43.778Z,63328.00
2018-04-06T08:35:43.761Z,62880.00
2018-04-06T08:36:43.740Z,62880.00
2018-04-06T08:37:43.719Z,60192.00
2018-04-06T08:38:43.708Z,63392.00
2018-04-06T08:39:43.681Z,62816.00
2018-04-06T08:40:43.665Z,62656.00
2018-04-06T08:41:43.643Z,60960.00
2018-04-06T08:42:43.622Z,64704.00
2018-04-06T08:43:43.602Z,64576.00
2018-04-06T08:44:43.583Z,64416.00
2018-04-06T08:45:43.563Z,63360.00
2018-04-06T08:46:43.544Z,65408.00
2018-04-06T08:47:43.525Z,64576.00
2018-04-06T08:48:43.506Z,66656.00
2018-04-06T08:49:43.486Z,65152.00
2018-04-06T08:50:43.466Z,62496.00
2018-04-06T08:51:43.448Z,66560.00
2018-04-06T08:52:43.428Z,65888.00
2018-04-06T08:53:43.434Z,66464.00
2018-04-06T08:54:43.454Z,66208.00
2018-04-06T08:55:43.400Z,66144.00
2018-04-06T08:56:43.351Z,64320.00
2018-04-06T08:57:43.355Z,65440.00
2018-04-06T08:58:43.312Z,67968.00
2018-04-06T08:59:43.312Z,67232.00
2018-04-06T09:00:43.272Z,66720.00
2018-04-06T09:01:43.271Z,67968.00
2018-04-06T09:02:43.233Z,66816.00
2018-04-06T09:03:43.217Z,67200.00
2018-04-06T09:04:43.249Z,67808.00
2018-04-06T09:05:43.175Z,66752.00
2018-04-06T09:06:43.156Z,66144.00
2018-04-06T09:07:43.162Z,68928.00
2018-04-06T09:08:43.127Z,68736.00
2018-04-06T09:09:43.099Z,71328.00
2018-04-06T09:10:43.080Z,72128.00
2018-04-06T09:11:43.063Z,70016.00
2018-04-06T09:12:43.090Z,68640.00
2018-04-06T09:13:43.025Z,70240.00
2018-04-06T09:14:43.006Z,70144.00
2018-04-06T09:15:43.005Z,70688.00
2018-04-06T09:16:42.967Z,72608.00
2018-04-06T09:17:42.946Z,72800.00
2018-04-06T09:18:42.931Z,71136.00
2018-04-06T09:19:42.944Z,71648.00
2018-04-06T09:20:42.894Z,72064.00
2018-04-06T09:21:42.878Z,70272.00
2018-04-06T09:22:42.859Z,72160.00
2018-04-06T09:23:42.838Z,69728.00
2018-04-06T09:24:42.819Z,68896.00
2018-04-06T09:25:42.799Z,75040.00
2018-04-06T09:26:42.785Z,74592.00
2018-04-06T09:27:42.762Z,72224.00
2018-04-06T09:28:42.746Z,71936.00
2018-04-06T09:29:42.726Z,73632.00
2018-04-06T09:30:42.713Z,75776.00
2018-04-06T09:31:42.695Z,74560.00
2018-04-06T09:32:42.673Z,75392.00
2018-04-06T09:33:42.660Z,74912.00
2018-04-06T09:34:42.639Z,74272.00
2018-04-06T09:35:42.621Z,78176.00
2018-04-06T09:36:42.604Z,80800.00
2018-04-06T09:37:42.590Z,80096.00
2018-04-06T09:38:42.570Z,77504.00
2018-04-06T09:39:42.580Z,77472.00
2018-04-06T09:40:42.558Z,77696.00
2018-04-06T09:41:42.518Z,80544.00
2018-04-06T09:42:42.500Z,81984.00
2018-04-06T09:43:42.488Z,81760.00
2018-04-06T09:44:42.468Z,83680.00
2018-04-06T09:45:42.451Z,81664.00
2018-04-06T09:46:42.455Z,77792.00
2018-04-06T09:47:42.443Z,79040.00
2018-04-06T09:48:42.400Z,80704.00
2018-04-06T09:49:42.390Z,80640.00
2018-04-06T09:50:42.369Z,78208.00
2018-04-06T09:51:42.351Z,79328.00
2018-04-06T09:52:42.340Z,84736.00
2018-04-06T09:53:42.328Z,84544.00
2018-04-06T09:54:42.300Z,82560.00
2018-04-06T09:55:42.281Z,83264.00
2018-04-06T09:56:42.283Z,84288.00
2018-04-06T09:57:42.248Z,83424.00
2018-04-06T09:58:42.236Z,84576.00
2018-04-06T09:59:42.215Z,83840.00
2018-04-06T10:00:42.212Z,82880.00
2018-04-06T10:01:42.180Z,82976.00
2018-04-06T10:02:42.163Z,84896.00
2018-04-06T10:03:42.151Z,85088.00
2018-04-06T10:04:42.132Z,84928.00
2018-04-06T10:05:42.128Z,84640.00
2018-04-06T10:06:42.115Z,86080.00
2018-04-06T10:07:42.080Z,87072.00
2018-04-06T10:08:42.063Z,84608.00
2018-04-06T10:09:42.046Z,85472.00
2018-04-06T10:10:42.030Z,84480.00
2018-04-06T10:11:42.041Z,84608.00
2018-04-06T10:12:42.008Z,82880.00
2018-04-06T10:13:41.981Z,83968.00
2018-04-06T10:14:41.964Z,84448.00
2018-04-06T10:15:41.951Z,82944.00
2018-04-06T10:16:41.935Z,82912.00
2018-04-06T10:17:41.925Z,85568.00
2018-04-06T10:18:41.915Z,84640.00
2018-04-06T10:19:41.889Z,83520.00
2018-04-06T10:20:41.874Z,84608.00
2018-04-06T10:21:41.851Z,86816.00
2018-04-06T10:22:41.846Z,87616.00
2018-04-06T10:23:41.827Z,86688.00
2018-04-06T10:24:41.806Z,80032.00
2018-04-06T10:25:41.791Z,82752.00
2018-04-06T10:26:41.773Z,85216.00
2018-04-06T10:27:41.760Z,82816.00
2018-04-06T10:28:41.750Z,85920.00
2018-04-06T10:29:41.726Z,87072.00
2018-04-06T10:30:41.714Z,83008.00
2018-04-06T10:31:41.716Z,84864.00
2018-04-06T10:32:41.682Z,85440.00
2018-04-06T10:33:41.667Z,84544.00
2018-04-06T10:34:41.649Z,84768.00
2018-04-06T10:35:41.633Z,85120.00
2018-04-06T10:36:41.619Z,83872.00
2018-04-06T10:37:41.604Z,81280.00
2018-04-06T10:38:41.589Z,84352.00
2018-04-06T10:39:41.576Z,106112.00
2018-04-06T10:40:41.559Z,87040.00
2018-04-06T10:41:41.544Z,83328.00
2018-04-06T10:42:41.530Z,82336.00
2018-04-06T10:43:41.520Z,81600.00
2018-04-06T10:44:41.501Z,85344.00
2018-04-06T10:45:41.486Z,84576.00
2018-04-06T10:46:41.472Z,83552.00
2018-04-06T10:47:41.458Z,86656.00
2018-04-06T10:48:41.444Z,89984.00
2018-04-06T10:49:41.437Z,87776.00
2018-04-06T10:50:41.415Z,87008.00
2018-04-06T10:51:41.410Z,85376.00
2018-04-06T10:52:41.386Z,87360.00
2018-04-06T10:53:41.375Z,86208.00
2018-04-06T10:54:41.357Z,87328.00
2018-04-06T10:55:41.372Z,90144.00
2018-04-06T10:56:41.343Z,88608.00
2018-04-06T10:57:41.314Z,87200.00
2018-04-06T10:58:41.301Z,87456.00
2018-04-06T10:59:41.290Z,90144.00
2018-04-06T11:00:41.280Z,89536.00
2018-04-06T11:01:41.256Z,87392.00
2018-04-06T11:02:41.243Z,88032.00
2018-04-06T11:03:41.229Z,86656.00
2018-04-06T11:04:41.225Z,82944.00
2018-04-06T11:05:41.218Z,81536.00
2018-04-06T11:06:41.200Z,84832.00
2018-04-06T11:07:41.176Z,88480.00
2018-04-06T11:08:41.155Z,87104.00
2018-04-06T11:09:41.141Z,84064.00
2018-04-06T11:10:41.129Z,83808.00
2018-04-06T11:11:41.114Z,88256.00
2018-04-06T11:12:41.097Z,89056.00
2018-04-06T11:13:41.102Z,89824.00
2018-04-06T11:14:41.071Z,88544.00
2018-04-06T11:15:41.064Z,88480.00
2018-04-06T11:16:41.049Z,90112.00
2018-04-06T11:17:41.025Z,87776.00
2018-04-06T11:18:41.017Z,88128.00
2018-04-06T11:19:40.996Z,90624.00
2018-04-06T11:20:40.990Z,90784.00
2018-04-06T11:21:40.971Z,87840.00
2018-04-06T11:22:40.960Z,89184.00
2018-04-06T11:23:40.940Z,90112.00
2018-04-06T11:24:40.927Z,88928.00
2018-04-06T11:25:40.911Z,85632.00
2018-04-06T11:26:40.899Z,88096.00
2018-04-06T11:27:40.885Z,90592.00
2018-04-06T11:28:40.878Z,90240.00
2018-04-06T11:29:40.857Z,88992.00
2018-04-06T11:30:40.842Z,89344.00
2018-04-06T11:31:40.843Z,86656.00
2018-04-06T11:32:40.816Z,84128.00
2018-04-06T11:33:40.803Z,86048.00
2018-04-06T11:34:40.793Z,85312.00
2018-04-06T11:35:40.786Z,83136.00
2018-04-06T11:36:40.764Z,84704.00
2018-04-06T11:37:40.753Z,86848.00
2018-04-06T11:38:40.736Z,87840.00
2018-04-06T11:39:40.725Z,88864.00
2018-04-06T11:40:40.709Z,85728.00
2018-04-06T11:41:40.695Z,85920.00
2018-04-06T11:42:40.696Z,85696.00
2018-04-06T11:43:40.673Z,85408.00
2018-04-06T11:44:40.660Z,85888.00
2018-04-06T11:45:40.683Z,84960.00
2018-04-06T11:46:40.630Z,84352.00
2018-04-06T11:47:40.617Z,87168.00
2018-04-06T11:48:40.603Z,86112.00
2018-04-06T11:49:40.590Z,83744.00
2018-04-06T11:50:40.577Z,83808.00
2018-04-06T11:51:40.578Z,85984.00
2018-04-06T11:52:40.550Z,85984.00
2018-04-06T11:53:40.540Z,86784.00
2018-04-06T11:54:40.524Z,85216.00
2018-04-06T11:55:40.511Z,87392.00
2018-04-06T11:56:40.500Z,86496.00
2018-04-06T11:57:40.485Z,81376.00
2018-04-06T11:58:40.477Z,81312.00
2018-04-06T11:59:40.459Z,82880.00
2018-04-06T12:00:40.450Z,84064.00
2018-04-06T12:01:40.433Z,90592.00
2018-04-06T12:02:40.418Z,84800.00
2018-04-06T12:03:40.409Z,85344.00
2018-04-06T12:04:40.392Z,87936.00
2018-04-06T12:05:40.379Z,85856.00
2018-04-06T12:06:40.366Z,82656.00
2018-04-06T12:07:40.395Z,75776.00
2018-04-06T12:08:40.338Z,65120.00
2018-04-06T12:09:40.325Z,61536.00
2018-04-06T12:10:40.312Z,63872.00
2018-04-06T12:11:40.338Z,60064.00
2018-04-06T12:12:40.301Z,66336.00
2018-04-06T12:13:40.269Z,53312.00
2018-04-06T12:14:40.262Z,43168.00
2018-04-06T12:15:40.261Z,38272.00
2018-04-06T12:16:40.225Z,51520.00
2018-04-06T12:17:40.210Z,47008.00
2018-04-06T12:18:40.196Z,43392.00